createdAt,value
2022-12-20T00:01:00.783Z,101087.19
2022-12-20T00:03:27.314Z,101079.47
2022-12-20T00:05:54.115Z,101087.50
2022-12-20T00:08:21.129Z,101076.50
2022-12-20T00:10:47.962Z,101086.25
2022-12-20T00:13:14.773Z,101088.03
2022-12-20T00:15:41.472Z,101084.69
2022-12-20T00:18:08.162Z,101076.44
2022-12-20T00:20:35.445Z,101078.31
2022-12-20T00:23:02.639Z,101071.38
2022-12-20T00:25:29.469Z,101078.47
2022-12-20T00:27:56.098Z,101073.34
2022-12-20T00:30:22.958Z,101074.22
2022-12-20T00:32:49.828Z,101071.72
2022-12-20T00:35:16.497Z,101062.94
2022-12-20T00:37:43.239Z,101063.84
2022-12-20T00:40:10.265Z,101069.88
2022-12-20T00:42:36.825Z,101063.75
2022-12-20T00:45:04.233Z,101063.13
2022-12-20T00:47:30.760Z,101050.06
2022-12-20T00:49:57.417Z,101056.09
2022-12-20T00:52:24.004Z,101061.97
2022-12-20T00:54:50.629Z,101062.16
2022-12-20T00:57:17.238Z,101054.34
2022-12-20T00:59:43.974Z,101060.19
2022-12-20T01:02:10.693Z,101058.84
2022-12-20T01:04:37.391Z,101052.06
2022-12-20T01:07:04.064Z,101055.31
2022-12-20T01:09:31.562Z,101060.44
2022-12-20T01:11:58.291Z,101065.50
2022-12-20T01:14:24.947Z,101073.53
2022-12-20T01:16:51.716Z,101072.75
2022-12-20T01:19:18.847Z,101085.00
2022-12-20T01:21:45.623Z,101072.13
2022-12-20T01:24:13.954Z,101078.34
2022-12-20T01:26:40.711Z,101079.22
2022-12-20T01:29:07.577Z,101082.44
2022-12-20T01:31:34.912Z,101076.38
2022-12-20T01:34:02.335Z,101066.88
2022-12-20T01:36:31.331Z,101061.66
2022-12-20T01:39:03.780Z,101066.78
2022-12-20T01:41:36.473Z,101053.13
2022-12-20T01:44:18.404Z,101058.34
2022-12-20T01:46:47.309Z,101063.50
2022-12-20T01:49:43.201Z,101050.72
2022-12-20T01:52:13.782Z,101049.81
2022-12-20T01:54:51.545Z,101045.47
2022-12-20T01:57:23.794Z,101045.56
2022-12-20T01:59:51.539Z,101044.75
2022-12-20T02:02:18.526Z,101040.25
2022-12-20T02:04:45.363Z,101034.13
2022-12-20T02:07:18.130Z,101024.69
2022-12-20T02:09:45.205Z,101030.53
2022-12-20T02:12:21.328Z,101032.13
2022-12-20T02:15:00.127Z,101028.75
2022-12-20T02:17:36.366Z,101036.47
2022-12-20T02:20:40.445Z,101024.31
2022-12-20T02:23:26.117Z,101029.38
2022-12-20T02:26:19.877Z,101040.47
2022-12-20T02:32:09.062Z,101037.19
2022-12-20T02:34:37.069Z,101039.59
2022-12-20T02:37:03.938Z,101039.59
2022-12-20T02:39:31.339Z,101029.19
2022-12-20T02:42:01.977Z,101031.59
2022-12-20T02:44:49.180Z,101033.28
2022-12-20T02:47:24.977Z,101034.75
2022-12-20T02:49:51.622Z,101024.47
2022-12-20T02:52:19.031Z,101025.25
2022-12-20T02:54:45.620Z,101032.28
2022-12-20T02:57:22.960Z,101026.06
2022-12-20T02:59:56.996Z,101028.63
2022-12-20T03:02:24.652Z,101007.16
2022-12-20T03:04:51.593Z,101003.50
2022-12-20T03:07:18.111Z,101005.19
2022-12-20T03:09:44.966Z,100999.97
2022-12-20T03:12:12.743Z,101004.22
2022-12-20T03:14:40.223Z,101005.69
2022-12-20T03:17:07.514Z,100997.31
2022-12-20T03:19:33.971Z,101001.66
2022-12-20T03:22:00.425Z,101006.72
2022-12-20T03:24:26.929Z,101007.59
2022-12-20T03:26:53.412Z,101003.13
2022-12-20T03:29:19.862Z,101010.09
2022-12-20T03:31:46.285Z,101005.69
2022-12-20T03:34:12.743Z,101009.28
2022-12-20T03:36:39.201Z,101007.50
2022-12-20T03:39:05.673Z,101017.00
2022-12-20T03:41:32.096Z,101010.19
2022-12-20T03:43:58.863Z,101005.91
2022-12-20T03:46:25.776Z,101006.72
2022-12-20T03:48:52.265Z,101010.44
2022-12-20T03:51:18.690Z,101002.81
2022-12-20T03:53:45.122Z,101006.19
2022-12-20T03:56:11.552Z,100995.00
2022-12-20T03:58:37.955Z,100996.78
2022-12-20T04:01:19.747Z,100994.38
2022-12-20T04:03:46.372Z,100986.84
2022-12-20T04:06:12.850Z,100982.69
2022-12-20T04:08:39.265Z,100981.88
2022-12-20T04:11:17.917Z,100979.56
2022-12-20T04:13:48.187Z,100984.81
2022-12-20T04:16:16.688Z,100985.84
2022-12-20T04:18:43.447Z,100985.84
2022-12-20T04:21:11.828Z,100990.41
2022-12-20T04:23:39.544Z,100985.34
2022-12-20T04:26:07.492Z,100982.94
2022-12-20T04:28:34.590Z,100976.19
2022-12-20T04:31:01.294Z,100976.56
2022-12-20T04:33:28.959Z,100971.50
2022-12-20T04:35:55.517Z,100969.81
2022-12-20T04:38:22.381Z,100964.84
2022-12-20T04:40:50.133Z,100961.53
2022-12-20T04:43:16.857Z,100956.38
2022-12-20T04:45:44.229Z,100952.94
2022-12-20T04:48:46.285Z,100965.81
2022-12-20T04:50:57.883Z,100962.50
2022-12-20T04:53:42.768Z,100971.94
2022-12-20T04:56:09.223Z,100962.72
2022-12-20T04:58:35.723Z,100966.09
2022-12-20T05:01:02.146Z,100964.56
2022-12-20T05:03:28.580Z,100958.69
2022-12-20T05:05:55.063Z,100951.78
2022-12-20T05:08:21.498Z,100957.91
2022-12-20T05:10:48.710Z,100952.75
2022-12-20T05:13:15.449Z,100950.41
2022-12-20T05:15:42.465Z,100930.00
2022-12-20T05:18:09.861Z,100928.22
2022-12-20T05:20:36.681Z,100943.84
2022-12-20T05:23:21.739Z,100935.47
2022-12-20T05:26:09.980Z,100941.44
2022-12-20T05:28:36.840Z,100939.66
2022-12-20T05:31:03.492Z,100941.34
2022-12-20T05:33:33.964Z,100944.03
2022-12-20T05:36:00.883Z,100938.88
2022-12-20T05:38:27.443Z,100928.47
2022-12-20T05:40:53.859Z,100939.66
2022-12-20T05:43:20.836Z,100937.25
2022-12-20T05:45:48.525Z,100940.00
2022-12-20T05:48:15.929Z,100938.94
2022-12-20T05:50:44.143Z,100945.88
2022-12-20T05:53:12.302Z,100939.13
2022-12-20T05:55:40.452Z,100949.50
2022-12-20T05:58:07.987Z,100951.28
2022-12-20T06:00:34.414Z,100945.59
2022-12-20T06:03:01.021Z,100950.91
2022-12-20T06:05:27.615Z,100955.19
2022-12-20T06:07:54.056Z,100950.91
2022-12-20T06:10:20.512Z,100957.75
2022-12-20T06:12:46.935Z,100952.84
2022-12-20T06:15:15.482Z,100963.28
2022-12-20T06:17:42.403Z,100956.31
2022-12-20T06:20:09.202Z,100962.47
2022-12-20T06:22:37.478Z,100963.28
2022-12-20T06:25:04.847Z,100958.00
2022-12-20T06:27:31.353Z,100950.38
2022-12-20T06:29:57.760Z,100964.31
2022-12-20T06:32:24.169Z,100960.94
2022-12-20T06:34:51.199Z,100958.22
2022-12-20T06:37:17.618Z,100962.81
2022-12-20T06:39:44.087Z,100968.13
2022-12-20T06:42:10.533Z,100965.69
2022-12-20T06:44:37.096Z,100967.59
2022-12-20T06:47:03.820Z,100966.72
2022-12-20T06:49:30.436Z,100953.81
2022-12-20T06:51:56.858Z,100969.44
2022-12-20T06:54:23.314Z,100974.75
2022-12-20T06:56:49.753Z,100973.97
2022-12-20T06:59:16.237Z,100970.41
2022-12-20T07:01:42.796Z,100970.66
2022-12-20T07:04:09.328Z,100969.75
2022-12-20T07:06:35.769Z,100967.91
2022-12-20T07:09:02.506Z,100965.41
2022-12-20T07:11:28.953Z,100960.25
2022-12-20T07:13:56.828Z,100962.03
2022-12-20T07:16:23.398Z,100968.81
2022-12-20T07:18:53.578Z,100967.03
2022-12-20T07:21:20.715Z,100970.41
2022-12-20T07:23:47.724Z,100969.53
2022-12-20T07:26:14.713Z,100970.56
2022-12-20T07:28:42.181Z,100971.38
2022-12-20T07:31:08.616Z,100971.31
2022-12-20T07:33:35.038Z,100974.75
2022-12-20T07:36:06.768Z,100984.28
2022-12-20T07:38:35.471Z,100977.34
2022-12-20T07:41:08.084Z,100980.72
2022-12-20T07:43:34.943Z,100976.28
2022-12-20T07:46:01.530Z,100980.66
2022-12-20T07:48:28.044Z,100970.34
2022-12-20T07:51:01.792Z,100965.00
2022-12-20T07:53:29.311Z,100965.09
2022-12-20T07:55:56.516Z,100968.63
2022-12-20T07:58:23.028Z,100965.19
2022-12-20T08:00:49.745Z,100965.97
2022-12-20T08:03:19.874Z,100961.88
2022-12-20T08:05:48.960Z,100967.91
2022-12-20T08:08:16.352Z,100953.31
2022-12-20T08:10:43.143Z,100949.22
2022-12-20T08:13:09.711Z,100949.22
2022-12-20T08:15:36.717Z,100949.22
2022-12-20T08:18:03.378Z,100956.16
2022-12-20T08:20:29.817Z,100955.47
2022-12-20T08:22:56.234Z,100956.16
2022-12-20T08:25:22.837Z,100960.53
2022-12-20T08:27:49.679Z,100947.63
2022-12-20T08:30:16.217Z,100960.53
2022-12-20T08:32:43.061Z,100970.94
2022-12-20T08:35:10.575Z,100976.25
2022-12-20T08:37:37.157Z,100967.69
2022-12-20T08:40:04.131Z,100966.72
2022-12-20T08:42:30.563Z,100963.13
2022-12-20T08:44:56.972Z,100975.91
2022-12-20T08:47:23.405Z,100970.72
2022-12-20T08:49:49.825Z,100984.63
2022-12-20T08:52:16.248Z,100981.06
2022-12-20T08:54:42.738Z,100984.34
2022-12-20T08:57:09.314Z,100996.38
2022-12-20T08:59:35.721Z,100983.38
2022-12-20T09:02:02.223Z,100977.34
2022-12-20T09:04:28.841Z,100970.41
2022-12-20T09:06:55.261Z,100966.06
2022-12-20T09:09:21.727Z,100973.00
2022-12-20T09:11:48.190Z,100981.63
2022-12-20T09:14:14.597Z,100973.78
2022-12-20T09:16:41.438Z,100954.94
2022-12-20T09:19:07.881Z,100955.91
2022-12-20T09:21:34.738Z,100957.59
2022-12-20T09:24:01.214Z,100966.31
2022-12-20T09:26:27.650Z,100964.00
2022-12-20T09:28:54.141Z,100957.38
2022-12-20T09:31:23.006Z,100948.84
2022-12-20T09:33:49.823Z,100938.06
2022-12-20T09:36:20.434Z,100938.13
2022-12-20T09:38:47.369Z,100936.09
2022-12-20T09:41:27.943Z,100942.22
2022-12-20T09:43:54.399Z,100944.03
2022-12-20T09:46:21.502Z,100945.81
2022-12-20T09:48:48.329Z,100945.81
2022-12-20T09:51:36.627Z,100945.88
2022-12-20T09:54:36.967Z,100944.19
2022-12-20T09:57:13.072Z,100937.06
2022-12-20T09:59:45.923Z,100929.31
2022-12-20T10:02:55.182Z,100933.88
2022-12-20T10:05:40.611Z,100918.38
2022-12-20T10:08:24.676Z,100903.72
2022-12-20T10:10:56.506Z,100910.81
2022-12-20T10:13:46.867Z,100897.91
2022-12-20T10:16:34.615Z,100906.44
2022-12-20T10:19:38.866Z,100905.34
2022-12-20T10:22:22.881Z,100889.06
2022-12-20T10:25:18.233Z,100895.78
2022-12-20T10:27:46.223Z,100896.59
2022-12-20T10:30:18.455Z,100884.69
2022-12-20T10:32:46.999Z,100888.06
2022-12-20T10:35:33.903Z,100884.59
2022-12-20T10:38:08.695Z,100881.31
2022-12-20T10:43:44.647Z,100871.94
2022-12-20T10:46:11.727Z,100878.00
2022-12-20T10:48:40.964Z,100872.84
2022-12-20T10:51:15.330Z,100871.94
2022-12-20T10:53:57.750Z,100866.72
2022-12-20T10:56:32.589Z,100855.50
2022-12-20T10:59:15.173Z,100854.84
2022-12-20T11:01:44.599Z,100858.31
2022-12-20T11:04:40.618Z,100866.78
2022-12-20T11:07:25.859Z,100862.44
2022-12-20T11:09:55.000Z,100857.28
2022-12-20T11:12:21.568Z,100851.31
2022-12-20T11:14:49.293Z,100853.09
2022-12-20T11:17:21.456Z,100842.03
2022-12-20T11:20:08.082Z,100844.03
2022-12-20T11:22:52.166Z,100825.16
2022-12-20T11:25:59.968Z,100813.81
2022-12-20T11:28:47.769Z,100815.50
2022-12-20T11:31:51.380Z,100814.69
2022-12-20T11:34:28.880Z,100815.34
2022-12-20T11:37:04.840Z,100814.38
2022-12-20T11:39:34.160Z,100811.00
2022-12-20T11:42:18.862Z,100808.09
2022-12-20T11:45:10.351Z,100807.78
2022-12-20T11:47:56.028Z,100810.50
2022-12-20T11:50:57.540Z,100803.66
2022-12-20T11:53:50.992Z,100810.50
2022-12-20T11:56:23.977Z,100806.91
2022-12-20T11:59:07.487Z,100808.66
2022-12-20T12:01:57.784Z,100813.16
2022-12-20T12:04:30.522Z,100802.16
2022-12-20T12:07:02.440Z,100803.03
2022-12-20T12:09:56.165Z,100793.00
2022-12-20T12:12:29.714Z,100781.00
2022-12-20T12:15:03.768Z,100778.41
2022-12-20T12:18:03.692Z,100780.13
2022-12-20T12:20:48.319Z,100779.22
2022-12-20T12:23:42.451Z,100782.75
2022-12-20T12:26:28.003Z,100776.56
2022-12-20T12:29:06.195Z,100770.81
2022-12-20T12:31:37.221Z,100764.94
2022-12-20T12:34:45.424Z,100764.22
2022-12-20T12:37:49.729Z,100764.53
2022-12-20T12:40:37.590Z,100755.97
2022-12-20T12:43:22.119Z,100752.44
2022-12-20T12:45:57.440Z,100746.44
2022-12-20T12:48:39.875Z,100739.59
2022-12-20T12:51:06.901Z,100738.03
2022-12-20T12:53:43.082Z,100739.81
2022-12-20T12:56:44.930Z,100723.63
2022-12-20T12:59:29.384Z,100729.59
2022-12-20T13:02:20.538Z,100723.44
2022-12-20T13:05:25.930Z,100730.47
2022-12-20T13:07:53.237Z,100728.78
2022-12-20T13:10:20.163Z,100726.41
2022-12-20T13:12:55.474Z,100729.00
2022-12-20T13:15:21.837Z,100740.41
2022-12-20T13:17:57.959Z,100727.44
2022-12-20T13:20:26.407Z,100733.56
2022-12-20T13:23:08.092Z,100713.44
2022-12-20T13:25:54.765Z,100717.94
2022-12-20T13:28:24.080Z,100718.69
2022-12-20T13:30:53.679Z,100714.25
2022-12-20T13:33:25.682Z,100716.84
2022-12-20T13:36:04.232Z,100729.66
2022-12-20T13:38:38.819Z,100711.34
2022-12-20T13:41:34.217Z,100712.03
2022-12-20T13:44:10.686Z,100721.31
2022-12-20T13:47:01.724Z,100710.84
2022-12-20T13:49:32.255Z,100719.22
2022-12-20T13:52:10.905Z,100723.56
2022-12-20T13:54:42.437Z,100711.47
2022-12-20T13:57:11.026Z,100710.47
2022-12-20T13:59:37.454Z,100707.88
2022-12-20T14:02:09.289Z,100713.03
2022-12-20T14:04:44.322Z,100701.84
2022-12-20T14:07:14.530Z,100705.38
2022-12-20T14:09:45.164Z,100712.22
2022-12-20T14:12:23.289Z,100726.00
2022-12-20T14:14:53.198Z,100711.41
2022-12-20T14:17:28.590Z,100701.97
2022-12-20T14:20:15.444Z,100700.28
2022-12-20T14:23:02.576Z,100696.00
2022-12-20T14:25:36.379Z,100698.44
2022-12-20T14:28:03.303Z,100687.38
2022-12-20T14:30:32.329Z,100677.06
2022-12-20T14:32:58.930Z,100693.28
2022-12-20T14:35:25.833Z,100703.75
2022-12-20T14:37:58.015Z,100691.66
2022-12-20T14:40:24.585Z,100689.88
2022-12-20T14:42:51.270Z,100681.19
2022-12-20T14:45:26.681Z,100684.66
2022-12-20T14:47:59.390Z,100674.13
2022-12-20T14:50:31.929Z,100668.97
2022-12-20T14:52:58.920Z,100662.84
2022-12-20T14:55:36.854Z,100669.53
2022-12-20T14:58:07.054Z,100661.78
2022-12-20T15:00:34.573Z,100658.19
2022-12-20T15:03:20.142Z,100659.94
2022-12-20T15:05:49.741Z,100645.06
2022-12-20T15:08:20.599Z,100635.63
2022-12-20T15:10:53.592Z,100640.63
2022-12-20T15:13:24.253Z,100641.50
2022-12-20T15:15:50.733Z,100638.84
2022-12-20T15:18:19.349Z,100654.31
2022-12-20T15:20:48.392Z,100650.94
2022-12-20T15:23:21.045Z,100651.75
2022-12-20T15:25:48.356Z,100658.59
2022-12-20T15:28:20.267Z,100646.44
2022-12-20T15:30:48.360Z,100644.81
2022-12-20T15:33:17.656Z,100631.91
2022-12-20T15:35:45.009Z,100628.53
2022-12-20T15:38:25.491Z,100630.28
2022-12-20T15:41:03.946Z,100626.94
2022-12-20T15:43:39.015Z,100627.09
2022-12-20T15:46:05.834Z,100617.72
2022-12-20T15:48:32.281Z,100629.06
2022-12-20T15:50:59.540Z,100625.75
2022-12-20T15:53:30.268Z,100609.31
2022-12-20T15:55:56.776Z,100612.63
2022-12-20T15:58:24.791Z,100608.38
2022-12-20T16:00:53.782Z,100603.94
2022-12-20T16:03:22.739Z,100610.72
2022-12-20T16:05:51.157Z,100608.78
2022-12-20T16:08:18.377Z,100615.63
2022-12-20T16:10:48.751Z,100614.53
2022-12-20T16:13:20.884Z,100628.97
2022-12-20T16:15:47.860Z,100626.34
2022-12-20T16:18:14.332Z,100615.84
2022-12-20T16:20:40.798Z,100611.56
2022-12-20T16:23:16.455Z,100619.22
2022-12-20T16:25:42.858Z,100622.47
2022-12-20T16:28:10.699Z,100614.66
2022-12-20T16:30:37.203Z,100615.41
2022-12-20T16:33:03.891Z,100621.44
2022-12-20T16:35:37.265Z,100618.59
2022-12-20T16:38:03.823Z,100616.84
2022-12-20T16:40:32.538Z,100616.84
2022-12-20T16:43:00.092Z,100609.91
2022-12-20T16:45:31.275Z,100621.13
2022-12-20T16:47:57.696Z,100625.38
2022-12-20T16:50:26.119Z,100618.59
2022-12-20T16:52:52.523Z,100616.13
2022-12-20T16:55:22.210Z,100622.25
2022-12-20T16:57:49.276Z,100618.94
2022-12-20T17:00:22.227Z,100618.06
2022-12-20T17:02:49.714Z,100624.09
2022-12-20T17:05:28.487Z,100621.50
2022-12-20T17:07:55.527Z,100625.84
2022-12-20T17:10:23.335Z,100626.00
2022-12-20T17:12:49.917Z,100626.81
2022-12-20T17:15:22.311Z,100626.00
2022-12-20T17:17:49.906Z,100626.00
2022-12-20T17:20:17.565Z,100615.69
2022-12-20T17:25:30.257Z,100629.41
2022-12-20T17:27:56.879Z,100620.84
2022-12-20T17:30:24.853Z,100623.34
2022-12-20T17:32:53.271Z,100620.84
2022-12-20T17:35:25.916Z,100622.63
2022-12-20T17:37:54.060Z,100618.19
2022-12-20T17:40:20.507Z,100617.31
2022-12-20T17:42:46.948Z,100617.38
2022-12-20T17:45:36.043Z,100619.09
2022-12-20T17:48:02.563Z,100622.41
2022-12-20T17:50:29.029Z,100622.47
2022-12-20T17:52:55.515Z,100612.97
2022-12-20T17:55:27.147Z,100615.47
2022-12-20T17:57:54.424Z,100611.19
2022-12-20T18:00:26.492Z,100601.69
2022-12-20T18:02:53.906Z,100600.81
2022-12-20T18:05:21.378Z,100603.47
2022-12-20T18:07:52.365Z,100606.03
2022-12-20T18:10:18.951Z,100615.41
2022-12-20T18:12:45.471Z,100596.28
2022-12-20T18:15:11.950Z,100601.38
2022-12-20T18:17:38.597Z,100606.53
2022-12-20T18:20:06.857Z,100617.66
2022-12-20T18:22:36.711Z,100610.72
2022-12-20T18:25:06.848Z,100608.16
2022-12-20T18:27:38.331Z,100598.72
2022-12-20T18:30:05.480Z,100607.28
2022-12-20T18:32:31.904Z,100611.69
2022-12-20T18:34:58.443Z,100605.66
2022-12-20T18:37:25.808Z,100600.56
2022-12-20T18:39:52.201Z,100601.44
2022-12-20T18:42:18.608Z,100585.22
2022-12-20T18:44:45.008Z,100590.44
2022-12-20T18:47:11.423Z,100577.53
2022-12-20T18:49:37.810Z,100592.13
2022-12-20T18:52:04.257Z,100574.00
2022-12-20T18:54:30.675Z,100586.97
2022-12-20T18:56:57.394Z,100585.97
2022-12-20T18:59:23.820Z,100587.69
2022-12-20T19:01:50.364Z,100592.84
2022-12-20T19:04:22.437Z,100595.34
2022-12-20T19:06:50.858Z,100598.00
2022-12-20T19:09:17.271Z,100592.75
2022-12-20T19:11:43.730Z,100590.91
2022-12-20T19:14:11.565Z,100590.78
2022-12-20T19:16:39.587Z,100589.00
2022-12-20T19:19:08.275Z,100576.94
2022-12-20T19:21:35.996Z,100568.16
2022-12-20T19:24:05.482Z,100566.47
2022-12-20T19:26:31.918Z,100574.03
2022-12-20T19:28:58.319Z,100578.28
2022-12-20T19:31:27.709Z,100585.16
2022-12-20T19:34:05.485Z,100578.22
2022-12-20T19:36:39.018Z,100577.34
2022-12-20T19:39:07.684Z,100579.84
2022-12-20T19:41:35.580Z,100577.28
2022-12-20T19:44:02.763Z,100582.50
2022-12-20T19:46:30.324Z,100588.47
2022-12-20T19:48:58.153Z,100593.69
2022-12-20T19:51:25.800Z,100591.03
2022-12-20T19:53:53.586Z,100592.94
2022-12-20T19:56:23.173Z,100590.44
2022-12-20T19:58:49.621Z,100589.66
2022-12-20T20:01:16.243Z,100582.91
2022-12-20T20:03:42.855Z,100582.09
2022-12-20T20:06:09.521Z,100579.44
2022-12-20T20:08:36.044Z,100570.97
2022-12-20T20:11:09.148Z,100577.97
2022-12-20T20:13:36.067Z,100565.13
2022-12-20T20:16:03.152Z,100564.25
2022-12-20T20:18:30.682Z,100558.38
2022-12-20T20:20:57.308Z,100554.09
2022-12-20T20:23:24.078Z,100553.22
2022-12-20T20:25:53.330Z,100548.06
2022-12-20T20:28:20.347Z,100547.31
2022-12-20T20:30:49.585Z,100559.50
2022-12-20T20:33:16.650Z,100553.38
2022-12-20T20:35:43.085Z,100560.13
2022-12-20T20:38:11.460Z,100558.28
2022-12-20T20:40:39.317Z,100551.44
2022-12-20T20:43:05.736Z,100550.56
2022-12-20T20:45:32.156Z,100547.09
2022-12-20T20:48:02.626Z,100549.59
2022-12-20T20:50:32.378Z,100555.72
2022-12-20T20:52:59.672Z,100563.38
2022-12-20T20:55:26.146Z,100555.56
2022-12-20T20:57:52.573Z,100558.88
2022-12-20T21:00:19.212Z,100560.50
2022-12-20T21:02:46.093Z,100551.09
2022-12-20T21:07:59.254Z,100548.59
2022-12-20T21:10:27.020Z,100561.47
2022-12-20T21:12:53.665Z,100562.34
2022-12-20T21:15:22.931Z,100566.53
2022-12-20T21:17:50.296Z,100557.94
2022-12-20T21:20:20.620Z,100563.09
2022-12-20T21:22:50.388Z,100560.50
2022-12-20T21:25:17.230Z,100564.84
2022-12-20T21:27:43.680Z,100556.31
2022-12-20T21:30:10.375Z,100569.28
2022-12-20T21:32:36.865Z,100562.41
2022-12-20T21:35:03.303Z,100546.88
2022-12-20T21:37:30.257Z,100547.91
2022-12-20T21:39:56.662Z,100543.56
2022-12-20T21:42:23.095Z,100539.22
2022-12-20T21:44:49.501Z,100537.47
2022-12-20T21:47:15.922Z,100541.00
2022-12-20T21:49:42.325Z,100538.34
2022-12-20T21:52:08.769Z,100535.69
2022-12-20T21:54:35.226Z,100547.75
2022-12-20T21:57:01.697Z,100542.63
2022-12-20T21:59:28.163Z,100541.72
2022-12-20T22:01:54.843Z,100546.00
2022-12-20T22:04:21.431Z,100539.88
2022-12-20T22:06:47.902Z,100542.47
2022-12-20T22:09:14.328Z,100533.75
2022-12-20T22:11:41.664Z,100537.13
2022-12-20T22:14:08.123Z,100528.44
2022-12-20T22:16:37.480Z,100528.31
2022-12-20T22:19:04.110Z,100535.06
2022-12-20T22:21:32.779Z,100527.34
2022-12-20T22:24:00.386Z,100523.88
2022-12-20T22:26:29.967Z,100526.53
2022-12-20T22:28:58.887Z,100534.34
2022-12-20T22:31:26.016Z,100541.19
2022-12-20T22:33:53.661Z,100543.03
2022-12-20T22:36:20.608Z,100535.22
2022-12-20T22:38:48.166Z,100535.38
2022-12-20T22:41:17.465Z,100531.97
2022-12-20T22:43:44.990Z,100532.09
2022-12-20T22:46:12.733Z,100535.53
2022-12-20T22:48:40.189Z,100535.69
2022-12-20T22:51:19.916Z,100535.69
2022-12-20T22:53:47.583Z,100532.44
2022-12-20T22:56:15.221Z,100536.78
2022-12-20T22:58:41.996Z,100539.44
2022-12-20T23:01:11.785Z,100535.97
2022-12-20T23:03:38.366Z,100536.06
2022-12-20T23:06:06.343Z,100535.22
2022-12-20T23:08:35.170Z,100525.03
2022-12-20T23:11:20.895Z,100520.84
2022-12-20T23:14:05.913Z,100520.91
2022-12-20T23:16:32.493Z,100518.31
2022-12-20T23:19:01.015Z,100523.56
2022-12-20T23:21:46.727Z,100515.97
2022-12-20T23:24:13.728Z,100518.75
2022-12-20T23:26:40.580Z,100520.63
2022-12-20T23:29:08.185Z,100513.84
2022-12-20T23:31:35.089Z,100519.19
2022-12-20T23:34:01.835Z,100505.72
2022-12-20T23:36:29.055Z,100509.25
2022-12-20T23:38:56.340Z,100501.66
2022-12-20T23:41:22.775Z,100499.09
2022-12-20T23:43:49.314Z,100493.19
2022-12-20T23:46:17.531Z,100492.38
2022-12-20T23:48:43.983Z,100489.09
2022-12-20T23:51:10.749Z,100477.91
2022-12-20T23:53:37.564Z,100479.69
2022-12-20T23:56:13.429Z,100471.06
2022-12-20T23:58:39.856Z,100468.47
